createdAt,value
2022-08-25T03:16:11.241Z,21.00
2022-08-25T03:18:42.531Z,21.10
2022-08-25T03:21:11.656Z,21.00
2022-08-25T03:23:40.636Z,21.00
2022-08-25T03:26:40.583Z,21.00
2022-08-25T03:29:09.291Z,21.00
2022-08-25T03:31:39.559Z,21.00
2022-08-25T03:34:07.838Z,21.00
2022-08-25T03:36:36.149Z,20.80
2022-08-25T03:39:04.681Z,20.90
2022-08-25T03:41:34.535Z,20.90
2022-08-25T03:44:04.434Z,20.90
2022-08-25T03:46:36.183Z,20.90
2022-08-25T03:49:07.144Z,20.90
2022-08-25T03:51:38.351Z,20.90
2022-08-25T03:54:06.911Z,20.90
2022-08-25T03:56:35.619Z,20.90
2022-08-25T03:59:04.460Z,20.80
2022-08-25T04:01:32.670Z,20.90
2022-08-25T04:04:00.928Z,20.90
2022-08-25T04:06:30.399Z,20.90
2022-08-25T04:08:58.809Z,20.90
2022-08-25T04:11:28.333Z,20.90
2022-08-25T04:13:58.235Z,20.90
2022-08-25T04:16:30.494Z,20.90
2022-08-25T04:19:01.395Z,20.90
2022-08-25T04:21:31.405Z,20.90
2022-08-25T04:23:59.743Z,20.90
2022-08-25T04:26:29.526Z,21.00
2022-08-25T04:29:00.079Z,20.90
2022-08-25T04:31:32.150Z,21.00
2022-08-25T04:34:02.383Z,21.10
2022-08-25T04:36:32.225Z,21.00
2022-08-25T04:39:00.772Z,21.00
2022-08-25T04:41:30.175Z,21.00
2022-08-25T04:43:59.857Z,21.00
2022-08-25T04:46:31.191Z,21.10
2022-08-25T04:49:01.493Z,21.20
2022-08-25T04:51:33.566Z,21.20
2022-08-25T04:54:03.214Z,21.10
2022-08-25T04:56:32.684Z,21.20
2022-08-25T04:59:05.038Z,21.30
2022-08-25T05:01:33.193Z,21.30
2022-08-25T05:04:03.539Z,21.40
2022-08-25T05:06:33.303Z,21.40
2022-08-25T05:09:03.631Z,21.50
2022-08-25T05:11:34.123Z,21.60
2022-08-25T05:14:03.897Z,21.70
2022-08-25T05:16:32.222Z,21.80
2022-08-25T05:19:00.545Z,21.80
2022-08-25T05:21:30.005Z,22.00
2022-08-25T05:24:01.153Z,22.10
2022-08-25T05:26:31.239Z,22.00
2022-08-25T05:29:00.294Z,22.10
2022-08-25T05:31:31.299Z,22.20
2022-08-25T05:34:00.398Z,22.30
2022-08-25T05:36:29.590Z,22.40
2022-08-25T05:38:59.045Z,22.50
2022-08-25T05:41:28.983Z,22.70
2022-08-25T05:43:57.784Z,22.80
2022-08-25T05:46:26.502Z,22.80
2022-08-25T05:48:55.146Z,23.10
2022-08-25T05:51:23.529Z,23.30
2022-08-25T05:53:52.335Z,23.60
2022-08-25T05:56:22.170Z,24.00
2022-08-25T05:58:50.780Z,24.60
2022-08-25T06:01:43.566Z,25.20
2022-08-25T06:04:13.911Z,25.70
2022-08-25T06:06:43.753Z,25.90
2022-08-25T06:09:12.047Z,26.30
2022-08-25T06:11:43.094Z,26.90
2022-08-25T06:14:12.101Z,26.90
2022-08-25T06:16:40.853Z,26.70
2022-08-25T06:19:10.667Z,26.80
2022-08-25T06:21:39.440Z,27.20
2022-08-25T06:24:10.960Z,27.30
2022-08-25T06:26:43.288Z,27.50
2022-08-25T06:29:11.518Z,28.00
2022-08-25T06:31:39.748Z,28.70
2022-08-25T06:34:07.947Z,29.30
2022-08-25T06:36:36.646Z,29.30
2022-08-25T06:39:05.204Z,30.20
2022-08-25T06:41:37.061Z,30.50
2022-08-25T06:44:07.135Z,31.00
2022-08-25T06:46:37.121Z,30.50
2022-08-25T06:49:06.728Z,31.10
2022-08-25T06:51:36.504Z,31.20
2022-08-25T06:54:05.902Z,31.40
2022-08-25T06:56:35.166Z,31.80
2022-08-25T06:59:04.718Z,31.80
2022-08-25T07:01:35.106Z,31.70
2022-08-25T07:04:10.297Z,31.90
2022-08-25T07:06:40.228Z,32.60
2022-08-25T07:09:12.789Z,32.40
2022-08-25T07:11:42.029Z,32.70
2022-08-25T07:14:12.027Z,32.30
2022-08-25T07:16:49.187Z,32.60
2022-08-25T07:19:20.875Z,32.20
2022-08-25T07:21:52.037Z,32.60
2022-08-25T07:24:21.057Z,33.10
2022-08-25T07:26:49.666Z,33.10
2022-08-25T07:29:20.567Z,32.80
2022-08-25T07:32:02.607Z,31.70
2022-08-25T07:34:52.391Z,32.10
2022-08-25T07:37:45.432Z,32.30
2022-08-25T07:40:12.564Z,33.00
2022-08-25T07:42:41.969Z,32.50
2022-08-25T07:45:11.724Z,32.30
2022-08-25T07:47:41.853Z,32.30
2022-08-25T07:50:12.773Z,33.20
2022-08-25T07:52:43.278Z,33.40
2022-08-25T07:55:12.025Z,33.60
2022-08-25T07:57:48.975Z,34.10
2022-08-25T08:00:22.478Z,34.50
2022-08-25T08:02:54.071Z,34.40
2022-08-25T08:05:23.819Z,34.50
2022-08-25T08:07:52.536Z,34.90
2022-08-25T08:13:12.697Z,34.90
2022-08-25T08:15:47.028Z,35.10
2022-08-25T08:18:17.052Z,34.60
2022-08-25T08:20:47.564Z,34.70
2022-08-25T08:23:17.206Z,35.00
2022-08-25T08:25:45.421Z,34.90
2022-08-25T08:28:13.560Z,34.80
2022-08-25T08:30:53.063Z,35.00
2022-08-25T08:33:25.524Z,35.20
2022-08-25T08:36:05.153Z,34.70
2022-08-25T08:38:34.620Z,34.30
2022-08-25T08:41:30.572Z,34.10
2022-08-25T08:44:10.815Z,34.10
2022-08-25T08:46:50.046Z,34.10
2022-08-25T08:49:28.005Z,34.10
2022-08-25T08:52:01.659Z,34.50
2022-08-25T08:54:35.263Z,34.50
2022-08-25T08:57:10.575Z,34.10
2022-08-25T08:59:48.688Z,34.10
2022-08-25T09:02:30.742Z,33.70
2022-08-25T09:05:19.925Z,33.00
2022-08-25T09:07:54.656Z,33.00
2022-08-25T09:10:25.739Z,32.60
2022-08-25T09:13:05.762Z,32.50
2022-08-25T09:16:09.732Z,32.40
2022-08-25T09:19:00.267Z,32.60
2022-08-25T09:21:38.163Z,33.10
2022-08-25T09:24:29.371Z,33.40
2022-08-25T09:27:12.392Z,33.50
2022-08-25T09:29:51.346Z,33.60
2022-08-25T09:32:20.188Z,33.70
2022-08-25T09:34:54.621Z,33.50
2022-08-25T09:37:27.221Z,33.60
2022-08-25T09:39:57.414Z,33.50
2022-08-25T09:42:49.776Z,33.40
2022-08-25T09:45:31.357Z,33.40
2022-08-25T09:47:59.481Z,33.40
2022-08-25T09:50:34.943Z,33.30
2022-08-25T09:53:17.353Z,33.30
2022-08-25T09:55:59.892Z,33.30
2022-08-25T09:58:28.476Z,33.30
2022-08-25T10:01:15.659Z,33.40
2022-08-25T10:03:59.928Z,33.40
2022-08-25T10:06:31.284Z,33.30
2022-08-25T10:09:05.829Z,33.40
2022-08-25T10:11:39.660Z,33.20
2022-08-25T10:14:19.133Z,32.90
2022-08-25T10:16:48.994Z,33.10
2022-08-25T10:19:26.386Z,33.00
2022-08-25T10:22:11.045Z,32.90
2022-08-25T10:24:44.214Z,32.90
2022-08-25T10:27:24.750Z,32.90
2022-08-25T10:30:12.707Z,32.80
2022-08-25T10:32:59.840Z,32.90
2022-08-25T10:35:32.478Z,33.00
2022-08-25T10:38:13.082Z,33.00
2022-08-25T10:40:57.861Z,33.00
2022-08-25T10:43:33.972Z,32.90
2022-08-25T10:46:12.580Z,33.00
2022-08-25T10:48:53.417Z,33.20
2022-08-25T10:51:46.037Z,33.60
2022-08-25T10:54:32.241Z,34.10
2022-08-25T10:57:10.841Z,34.50
2022-08-25T11:00:07.221Z,34.40
2022-08-25T11:03:05.245Z,34.70
2022-08-25T11:05:40.407Z,34.60
2022-08-25T11:08:15.361Z,34.70
2022-08-25T11:10:48.746Z,34.60
2022-08-25T11:13:27.894Z,34.60
2022-08-25T11:16:16.591Z,34.40
2022-08-25T11:18:55.946Z,34.30
2022-08-25T11:21:31.259Z,34.50
2022-08-25T11:24:15.249Z,34.90
2022-08-25T11:26:51.404Z,34.60
2022-08-25T11:29:23.032Z,34.60
2022-08-25T11:31:54.055Z,34.50
2022-08-25T11:34:23.344Z,34.10
2022-08-25T11:36:54.192Z,33.80
2022-08-25T11:39:35.275Z,34.00
2022-08-25T11:42:15.667Z,34.20
2022-08-25T11:44:59.520Z,34.20
2022-08-25T11:47:49.706Z,34.00
2022-08-25T11:50:32.840Z,34.00
2022-08-25T11:53:26.520Z,33.70
2022-08-25T11:55:58.815Z,33.60
2022-08-25T11:58:50.165Z,33.30
2022-08-25T12:02:10.938Z,33.10
2022-08-25T12:04:45.094Z,32.90
2022-08-25T12:07:28.666Z,33.00
2022-08-25T12:10:21.622Z,33.00
2022-08-25T12:13:22.291Z,33.00
2022-08-25T12:15:59.890Z,33.00
2022-08-25T12:18:45.752Z,33.00
2022-08-25T12:21:29.261Z,33.00
2022-08-25T12:24:15.072Z,33.10
2022-08-25T12:26:51.274Z,33.10
2022-08-25T12:29:29.502Z,33.00
2022-08-25T12:32:32.880Z,33.00
2022-08-25T12:35:22.786Z,33.00
2022-08-25T12:38:05.914Z,33.10
2022-08-25T12:40:38.673Z,32.90
2022-08-25T12:43:11.523Z,33.00
2022-08-25T12:45:46.691Z,33.10
2022-08-25T12:48:57.716Z,32.90
2022-08-25T12:51:28.612Z,32.80
2022-08-25T12:54:16.087Z,32.80
2022-08-25T12:56:51.076Z,32.80
2022-08-25T12:59:23.422Z,32.80
2022-08-25T13:02:19.054Z,32.80
2022-08-25T13:05:11.043Z,32.80
2022-08-25T13:07:57.393Z,32.80
2022-08-25T13:10:42.423Z,32.80
2022-08-25T13:13:18.004Z,32.80
2022-08-25T13:16:00.360Z,32.80
2022-08-25T13:18:31.185Z,32.60
2022-08-25T13:21:09.793Z,32.60
2022-08-25T13:23:42.838Z,32.60
2022-08-25T13:26:15.311Z,32.60
2022-08-25T13:28:50.166Z,32.60
2022-08-25T13:31:22.284Z,32.70
2022-08-25T13:34:02.329Z,32.60
2022-08-25T13:36:54.104Z,32.40
2022-08-25T13:39:46.015Z,32.40
2022-08-25T13:42:20.296Z,32.40
2022-08-25T13:44:55.620Z,32.10
2022-08-25T13:47:43.601Z,32.20
2022-08-25T13:50:34.178Z,32.20
2022-08-25T13:53:04.837Z,32.20
2022-08-25T13:55:51.528Z,32.20
2022-08-25T13:58:38.651Z,32.20
2022-08-25T14:01:23.141Z,32.10
2022-08-25T14:04:32.558Z,32.20
2022-08-25T14:07:09.760Z,32.20
2022-08-25T14:09:42.113Z,32.20
2022-08-25T14:12:10.304Z,32.10
2022-08-25T14:14:40.235Z,32.00
2022-08-25T14:17:36.267Z,32.00
2022-08-25T14:20:01.062Z,31.90
2022-08-25T14:22:29.358Z,31.90
2022-08-25T14:24:57.521Z,32.00
2022-08-25T14:27:27.768Z,31.90
2022-08-25T14:29:57.438Z,31.80
2022-08-25T14:32:25.552Z,31.90
2022-08-25T14:34:54.316Z,31.90
2022-08-25T14:37:25.267Z,31.90
2022-08-25T14:39:54.826Z,31.80
2022-08-25T14:42:25.434Z,31.80
2022-08-25T14:44:54.589Z,31.80
2022-08-25T14:47:25.833Z,31.70
2022-08-25T14:49:54.108Z,31.60
2022-08-25T14:52:26.723Z,31.60
2022-08-25T14:54:54.880Z,31.60
2022-08-25T14:57:23.009Z,31.60
2022-08-25T14:59:52.452Z,31.50
2022-08-25T15:02:22.493Z,31.40
2022-08-25T15:05:02.251Z,31.40
2022-08-25T15:07:50.138Z,31.40
2022-08-25T15:10:18.567Z,31.40
2022-08-25T15:12:53.918Z,31.30
2022-08-25T15:15:26.432Z,31.30
2022-08-25T15:17:55.332Z,31.30
2022-08-25T15:20:29.123Z,31.20
2022-08-25T15:22:57.383Z,31.20
2022-08-25T15:25:26.057Z,31.20
2022-08-25T15:27:54.382Z,31.10
2022-08-25T15:30:22.716Z,31.00
2022-08-25T15:32:59.240Z,30.90
2022-08-25T15:35:29.345Z,30.80
2022-08-25T15:37:57.617Z,30.80
2022-08-25T15:40:25.972Z,30.70
2022-08-25T15:42:54.153Z,30.60
2022-08-25T15:45:24.023Z,30.70
2022-08-25T15:47:53.991Z,30.60
2022-08-25T15:50:26.027Z,30.60
2022-08-25T15:52:55.794Z,30.50
2022-08-25T15:55:24.828Z,30.50
2022-08-25T15:57:53.437Z,30.40
2022-08-25T16:00:22.514Z,30.30
2022-08-25T16:02:50.770Z,30.20
2022-08-25T16:05:25.166Z,30.20
2022-08-25T16:07:55.594Z,30.20
2022-08-25T16:10:23.862Z,30.10
2022-08-25T16:12:53.326Z,30.00
2022-08-25T16:15:23.961Z,30.00
2022-08-25T16:17:56.873Z,29.90
2022-08-25T16:20:25.172Z,29.90
2022-08-25T16:22:53.642Z,29.80
2022-08-25T16:25:23.803Z,29.70
2022-08-25T16:27:52.012Z,29.60
2022-08-25T16:30:21.435Z,29.30
2022-08-25T16:32:49.660Z,29.10
2022-08-25T16:35:17.868Z,29.00
2022-08-25T16:37:46.025Z,28.70
2022-08-25T16:40:19.054Z,28.60
2022-08-25T16:42:49.639Z,28.50
2022-08-25T16:45:18.337Z,28.30
2022-08-25T16:47:46.496Z,28.10
2022-08-25T16:50:17.076Z,27.90
2022-08-25T16:53:02.526Z,27.70
2022-08-25T16:55:39.302Z,27.50
2022-08-25T16:58:13.398Z,27.40
2022-08-25T17:00:44.748Z,27.20
2022-08-25T17:03:13.126Z,27.00
2022-08-25T17:05:43.382Z,26.90
2022-08-25T17:08:30.615Z,26.70
2022-08-25T17:11:08.113Z,26.60
2022-08-25T17:13:38.460Z,26.40
2022-08-25T17:16:07.352Z,26.30
2022-08-25T17:18:36.168Z,26.10
2022-08-25T17:21:08.568Z,26.00
2022-08-25T17:23:38.642Z,25.90
2022-08-25T17:26:14.199Z,25.60
2022-08-25T17:28:44.684Z,25.60
2022-08-25T17:31:14.783Z,25.50
2022-08-25T17:33:43.814Z,25.30
2022-08-25T17:36:17.017Z,25.20
2022-08-25T17:38:45.495Z,25.00
2022-08-25T17:41:14.996Z,24.80
2022-08-25T17:43:44.958Z,24.80
2022-08-25T17:46:14.089Z,24.60
2022-08-25T17:48:43.922Z,24.50
2022-08-25T17:51:12.345Z,24.40
2022-08-25T17:53:40.489Z,24.30
2022-08-25T17:56:10.789Z,24.20
2022-08-25T17:58:39.603Z,24.00
2022-08-25T18:01:16.061Z,23.90
2022-08-25T18:03:44.551Z,23.80
2022-08-25T18:06:16.129Z,23.70
2022-08-25T18:08:51.686Z,23.60
2022-08-25T18:11:21.609Z,23.60
2022-08-25T18:13:50.406Z,23.50
2022-08-25T18:16:20.310Z,23.40
2022-08-25T18:18:48.460Z,23.30
2022-08-25T18:21:18.398Z,23.20
2022-08-25T18:23:46.847Z,23.10
2022-08-25T18:26:16.044Z,23.00
2022-08-25T18:28:44.595Z,23.00
2022-08-25T18:31:13.511Z,22.90
2022-08-25T18:33:45.053Z,22.80
2022-08-25T18:36:14.369Z,22.70
2022-08-25T18:39:00.272Z,22.70
2022-08-25T18:41:35.405Z,22.60
2022-08-25T18:44:03.866Z,22.50
2022-08-25T18:46:32.034Z,22.50
2022-08-25T18:49:01.597Z,22.40
2022-08-25T18:51:33.026Z,22.30
2022-08-25T18:54:01.789Z,22.30
2022-08-25T18:56:30.505Z,22.30
2022-08-25T18:58:59.073Z,22.20
2022-08-25T19:01:27.302Z,22.20
2022-08-25T19:03:57.088Z,22.10
2022-08-25T19:06:27.323Z,22.00
2022-08-25T19:08:55.557Z,22.00
2022-08-25T19:11:23.678Z,21.90
2022-08-25T19:13:52.939Z,21.80
2022-08-25T19:16:32.924Z,21.80
2022-08-25T19:19:02.510Z,21.70
2022-08-25T19:21:33.749Z,21.60
2022-08-25T19:24:03.159Z,21.60
2022-08-25T19:26:33.304Z,21.50
2022-08-25T19:29:01.703Z,21.50
2022-08-25T19:31:33.132Z,21.40
2022-08-25T19:34:02.199Z,21.40
2022-08-25T19:36:32.297Z,21.40
2022-08-25T19:39:02.331Z,21.30
2022-08-25T19:41:33.000Z,21.30
2022-08-25T19:44:03.034Z,21.20
2022-08-25T19:46:35.325Z,21.20
2022-08-25T19:49:08.076Z,21.10
2022-08-25T19:51:40.218Z,21.00
2022-08-25T19:54:10.231Z,20.80
2022-08-25T19:56:43.912Z,20.90
2022-08-25T19:59:25.484Z,20.70
2022-08-25T20:01:54.837Z,20.80
2022-08-25T20:04:24.542Z,20.80
2022-08-25T20:06:55.678Z,20.70
2022-08-25T20:09:38.869Z,20.60
2022-08-25T20:12:09.656Z,20.60
2022-08-25T20:14:37.860Z,20.60
2022-08-25T20:17:14.358Z,20.60
2022-08-25T20:19:52.411Z,20.30
2022-08-25T20:22:25.948Z,20.40
2022-08-25T20:24:57.937Z,20.40
2022-08-25T20:27:31.750Z,20.40
2022-08-25T20:30:02.569Z,20.40
2022-08-25T20:32:32.476Z,20.40
2022-08-25T20:35:01.360Z,20.40
2022-08-25T20:37:31.425Z,20.30
2022-08-25T20:40:02.671Z,20.20
2022-08-25T20:42:31.366Z,20.30
2022-08-25T20:45:00.149Z,20.30
2022-08-25T20:47:29.981Z,20.20
2022-08-25T20:50:02.239Z,20.20
2022-08-25T20:52:39.083Z,20.10
2022-08-25T20:55:11.997Z,20.10
2022-08-25T20:57:40.459Z,20.20
2022-08-25T21:00:10.519Z,20.10
2022-08-25T21:02:38.712Z,20.10
2022-08-25T21:05:08.847Z,20.10
2022-08-25T21:07:38.393Z,20.10
2022-08-25T21:10:10.464Z,20.10
2022-08-25T21:12:42.757Z,20.00
2022-08-25T21:15:12.570Z,20.00
2022-08-25T21:17:42.363Z,20.00
2022-08-25T21:20:12.444Z,20.00
2022-08-25T21:22:42.214Z,19.90
2022-08-25T21:25:11.364Z,19.90
2022-08-25T21:27:39.523Z,19.80
2022-08-25T21:30:08.699Z,19.80
2022-08-25T21:32:37.460Z,19.80
2022-08-25T21:35:07.769Z,19.60
2022-08-25T21:37:36.230Z,19.80
2022-08-25T21:40:08.709Z,19.80
2022-08-25T21:42:37.030Z,19.70
2022-08-25T21:45:05.838Z,19.70
2022-08-25T21:47:42.471Z,19.70
2022-08-25T21:50:11.398Z,19.60
2022-08-25T21:52:40.103Z,19.60
2022-08-25T21:55:15.847Z,19.60
2022-08-25T21:57:44.680Z,19.60
2022-08-25T22:00:15.268Z,19.50
2022-08-25T22:02:45.954Z,19.50
2022-08-25T22:05:14.354Z,19.50
2022-08-25T22:07:45.139Z,19.40
2022-08-25T22:10:16.586Z,19.30
